Sierra Vista, AZ (85635)

2:22 PM MST on January 26, 2015 (GMT -0700)
Foothills | Change Station
CLOSE
Current Station
Personal Weather Station
Location: Sierra Vista, AZ
Elevation: 4508 ft
Nearby Weather Stations

Elev 4508 ft 31.54 °N, 110.26 °W | Updated 2 minutes ago

Overcast
Overcast
60.3 °F
Feels Like 60.3 °F
N
1.0
Wind Variable Wind from SSE
Gusts 8.0 mph

Today
High -- | Low -- °F
--% Chance of Precip.
Yesterday
High -- | Low -- °F
Precip. -- in
7:17 AM 5:50 PM
Waxing Crescent, 47% visible
Pressure 30.12 in
Visibility 10.0 miles
Clouds Scattered Clouds 8500 ft
Mostly Cloudy 11000 ft
Mostly Cloudy 16000 ft
Dew Point 30 °F
Humidity 31%
Rainfall 0.00 in
Snow Depth Not available.
UV 3 out of 12
Pollen 3.10 out of 12
Air Quality Not available.
Flu Activity Not available.
METAR KFHU 262055Z 09007KT 10SM SCT085 BKN110 BKN160 16/M03 A3020 RMK SLP199 60000 58024

More Conditions Fewer Conditions

Pressure 30.12 in
Visibility 10.0 miles
Clouds Scattered Clouds 8500 ft
Mostly Cloudy 11000 ft
Mostly Cloudy 16000 ft
Dew Point 30 °F
Humidity 31%
Rainfall 0.00 in
Snow Depth Not available.
UV 3 out of 12
Pollen 3.10 out of 12
Air Quality Not available.
Flu Activity Not available.
METAR KFHU 262055Z 09007KT 10SM SCT085 BKN110 BKN160 16/M03 A3020 RMK SLP199 60000 58024

More Conditions Fewer Conditions

Nowcast | as of 1:58 PM MST on January 26, 2015

Scattered showers will continue to shift north across Southeast Arizona this afternoon. Rainfall amounts will generally tally less than 0.05 inches per hour.

×

10-Day Weather Forecast

Almanac

Astronomy

Jan. 26, 2015 Rise Set
Actual Time
Civil Twilight
Nautical Twilight
Astronomical Twilight
Moon
Length of Visible Light
Length of Day
Tomorrow will be .
, % of the Moon is Illuminated

Today's Extremes

State Highs State Lows

Community

WunderPhotos

Upload Photos

1,790,364 photos uploaded!

WunderBlogs® & News

Nearby

Air Quality

  Air Quality AQ Index Pollutant
Not available.

Snow Depth

Station Depth Elevation

Earthquake Activity

City Distance Mag. Time & Date
Minimum magnitude displayed is 2.5.

Coastal Water Temperatures

Place Temperature

Nearby Weather Stations